Anadyr', Russia
Current Conditions -  °F | °C
As of 8:00 PM on Friday 24 Oct 2014 (Local Time) from UHMA Reporting Station
Scattered Clouds Scattered Clouds  
Wind Chill: 18°   Ceiling: Unl
Heat Index: 27°   Visibility: 6mi
Dew Point: 21°   Wind: 9mph
Humidity: 80%   Direction: 160°SSE
Pressure: 29.41"   Gusts: NA
Location:  64.75°N, 177.48°E
Report Text: UHMA 240800Z 16004MPS 9999 SCT080 M03/M06 Q0996 NOSIG RMKQFE742/0989 880///60
Loading
Personal Weather Stations






























Interactive Weather Map
Tropical Storm Tracking
New forecast layout! Learn more

10-Day Weather Forecast

Advertisements
Track Severe Weather on mobile